createdAt,value
2023-03-10T00:01:31.624Z,11.52
2023-03-10T00:04:01.130Z,11.53
2023-03-10T00:06:32.629Z,11.50
2023-03-10T00:08:59.879Z,11.49
2023-03-10T00:11:27.038Z,11.40
2023-03-10T00:13:53.992Z,11.35
2023-03-10T00:16:24.613Z,11.43
2023-03-10T00:18:52.500Z,11.38
2023-03-10T00:21:32.075Z,11.47
2023-03-10T00:27:11.938Z,11.43
2023-03-10T00:29:39.025Z,11.36
2023-03-10T00:32:08.257Z,11.50
2023-03-10T00:34:36.040Z,11.42
2023-03-10T00:40:18.273Z,11.62
2023-03-10T00:42:45.371Z,11.75
2023-03-10T00:45:12.156Z,11.84
2023-03-10T00:47:39.047Z,11.87
2023-03-10T00:50:06.347Z,11.83
2023-03-10T00:52:33.989Z,11.83
2023-03-10T00:55:01.161Z,11.70
2023-03-10T00:57:28.585Z,11.81
2023-03-10T00:59:55.578Z,11.79
2023-03-10T01:02:22.536Z,11.88
2023-03-10T01:04:50.106Z,11.86
2023-03-10T01:07:17.468Z,11.80
2023-03-10T01:09:44.513Z,11.89
2023-03-10T01:12:11.531Z,11.69
2023-03-10T01:14:38.373Z,11.69
2023-03-10T01:17:05.631Z,11.66
2023-03-10T01:19:32.827Z,11.63
2023-03-10T01:22:01.244Z,11.54
2023-03-10T01:24:28.154Z,11.46
2023-03-10T01:26:55.153Z,11.51
2023-03-10T01:29:22.055Z,11.50
2023-03-10T01:31:49.213Z,11.43
2023-03-10T01:34:16.182Z,11.39
2023-03-10T01:36:43.285Z,11.34
2023-03-10T01:39:10.243Z,11.35
2023-03-10T01:41:41.832Z,11.37
2023-03-10T01:44:21.068Z,11.28
2023-03-10T01:46:54.844Z,11.22
2023-03-10T01:49:41.371Z,11.26
2023-03-10T01:52:11.490Z,11.27
2023-03-10T01:54:55.897Z,11.18
2023-03-10T01:57:28.145Z,11.21
2023-03-10T01:59:56.966Z,11.19
2023-03-10T02:02:25.379Z,11.10
2023-03-10T02:04:54.384Z,11.01
2023-03-10T02:07:26.517Z,11.00
2023-03-10T02:09:56.136Z,11.01
2023-03-10T02:12:23.667Z,10.91
2023-03-10T02:14:52.996Z,10.92
2023-03-10T02:17:23.202Z,10.94
2023-03-10T02:19:58.964Z,10.94
2023-03-10T02:22:26.867Z,10.88
2023-03-10T02:24:59.632Z,10.84
2023-03-10T02:27:29.942Z,10.78
2023-03-10T02:30:08.268Z,10.74
2023-03-10T02:32:41.135Z,10.67
2023-03-10T02:35:08.930Z,10.64
2023-03-10T02:37:42.691Z,10.61
2023-03-10T02:40:40.619Z,10.63
2023-03-10T02:43:22.382Z,10.45
2023-03-10T02:45:57.674Z,10.52
2023-03-10T02:48:37.903Z,10.47
2023-03-10T02:51:18.501Z,10.44
2023-03-10T02:53:45.650Z,10.44
2023-03-10T02:56:13.091Z,10.42
2023-03-10T02:58:42.641Z,10.37
2023-03-10T03:01:10.154Z,10.26
2023-03-10T03:03:41.212Z,10.25
2023-03-10T03:06:09.148Z,10.27
2023-03-10T03:08:36.218Z,10.24
2023-03-10T03:11:06.096Z,10.17
2023-03-10T03:13:33.275Z,10.07
2023-03-10T03:16:00.545Z,10.10
2023-03-10T03:18:27.489Z,10.12
2023-03-10T03:20:54.464Z,10.08
2023-03-10T03:23:21.595Z,10.04
2023-03-10T03:25:49.556Z,9.98
2023-03-10T03:28:19.108Z,10.08
2023-03-10T03:30:47.044Z,10.09
2023-03-10T03:33:14.709Z,10.07
2023-03-10T03:35:44.309Z,10.09
2023-03-10T03:38:11.374Z,10.03
2023-03-10T03:40:38.906Z,9.98
2023-03-10T03:43:08.070Z,10.02
2023-03-10T03:45:35.238Z,10.04
2023-03-10T03:48:02.495Z,9.99
2023-03-10T03:50:31.824Z,10.03
2023-03-10T03:53:04.792Z,9.98
2023-03-10T03:55:32.013Z,10.06
2023-03-10T03:57:59.578Z,10.08
2023-03-10T04:00:26.657Z,10.15
2023-03-10T04:03:00.720Z,9.97
2023-03-10T04:05:29.018Z,10.02
2023-03-10T04:07:56.124Z,10.05
2023-03-10T04:10:28.462Z,10.03
2023-03-10T04:12:56.014Z,9.98
2023-03-10T04:15:24.339Z,9.97
2023-03-10T04:17:51.604Z,9.85
2023-03-10T04:20:18.840Z,9.84
2023-03-10T04:22:49.131Z,9.65
2023-03-10T04:25:16.335Z,9.63
2023-03-10T04:27:43.265Z,9.67
2023-03-10T04:30:12.951Z,9.69
2023-03-10T04:32:42.259Z,9.77
2023-03-10T04:35:12.998Z,9.78
2023-03-10T04:37:41.646Z,9.74
2023-03-10T04:40:12.687Z,9.70
2023-03-10T04:42:40.872Z,9.79
2023-03-10T04:45:08.974Z,9.64
2023-03-10T04:47:36.144Z,9.76
2023-03-10T04:50:03.592Z,9.64
2023-03-10T04:52:30.695Z,9.61
2023-03-10T04:54:57.833Z,9.47
2023-03-10T04:57:24.727Z,9.57
2023-03-10T04:59:53.044Z,9.56
2023-03-10T05:02:20.816Z,9.54
2023-03-10T05:04:48.110Z,9.31
2023-03-10T05:07:15.125Z,9.40
2023-03-10T05:09:46.404Z,9.37
2023-03-10T05:12:13.396Z,9.28
2023-03-10T05:14:40.970Z,9.35
2023-03-10T05:17:08.332Z,9.39
2023-03-10T05:19:36.014Z,9.46
2023-03-10T05:22:06.070Z,9.63
2023-03-10T05:24:34.722Z,9.72
2023-03-10T05:27:04.448Z,9.77
2023-03-10T05:29:32.276Z,9.92
2023-03-10T05:32:07.654Z,9.99
2023-03-10T05:34:38.434Z,10.05
2023-03-10T05:37:06.306Z,10.12
2023-03-10T05:39:33.999Z,10.06
2023-03-10T05:42:04.432Z,10.10
2023-03-10T05:44:33.919Z,10.22
2023-03-10T05:47:02.829Z,10.27
2023-03-10T05:49:30.883Z,10.30
2023-03-10T05:51:59.262Z,10.36
2023-03-10T05:54:26.966Z,10.44
2023-03-10T05:56:54.225Z,10.48
2023-03-10T05:59:26.202Z,10.57
2023-03-10T06:01:54.527Z,10.52
2023-03-10T06:04:21.801Z,10.58
2023-03-10T06:06:48.775Z,10.67
2023-03-10T06:09:15.884Z,10.71
2023-03-10T06:11:43.167Z,10.80
2023-03-10T06:14:10.736Z,10.82
2023-03-10T06:16:37.572Z,10.89
2023-03-10T06:19:04.632Z,10.91
2023-03-10T06:21:31.657Z,11.01
2023-03-10T06:23:59.403Z,11.17
2023-03-10T06:26:26.822Z,11.23
2023-03-10T06:28:53.751Z,11.29
2023-03-10T06:31:23.440Z,11.41
2023-03-10T06:33:50.553Z,11.40
2023-03-10T06:36:22.355Z,11.45
2023-03-10T06:38:49.927Z,11.44
2023-03-10T06:41:17.585Z,11.65
2023-03-10T06:43:44.777Z,11.70
2023-03-10T06:46:13.141Z,11.90
2023-03-10T06:48:42.232Z,12.01
2023-03-10T06:51:12.183Z,12.21
2023-03-10T06:53:39.257Z,12.38
2023-03-10T06:56:08.738Z,12.66
2023-03-10T06:58:37.182Z,13.01
2023-03-10T07:01:05.195Z,13.27
2023-03-10T07:03:32.290Z,13.34
2023-03-10T07:06:00.159Z,13.60
2023-03-10T07:08:28.962Z,13.75
2023-03-10T07:10:56.703Z,14.11
2023-03-10T07:13:24.345Z,14.26
2023-03-10T07:15:51.486Z,14.40
2023-03-10T07:18:18.392Z,14.50
2023-03-10T07:20:47.796Z,14.52
2023-03-10T07:23:15.345Z,14.73
2023-03-10T07:25:42.111Z,14.88
2023-03-10T07:28:09.490Z,15.16
2023-03-10T07:30:38.784Z,15.28
2023-03-10T07:33:06.106Z,15.40
2023-03-10T07:35:36.624Z,15.46
2023-03-10T07:38:04.545Z,15.72
2023-03-10T07:40:35.503Z,15.88
2023-03-10T07:43:03.392Z,15.94
2023-03-10T07:45:33.724Z,16.00
2023-03-10T07:48:01.107Z,16.12
2023-03-10T07:50:28.027Z,16.31
2023-03-10T07:52:56.221Z,16.35
2023-03-10T07:55:24.887Z,16.44
2023-03-10T07:57:52.030Z,16.63
2023-03-10T08:00:19.527Z,16.70
2023-03-10T08:02:46.493Z,16.78
2023-03-10T08:05:15.227Z,16.91
2023-03-10T08:07:43.711Z,16.94
2023-03-10T08:10:11.453Z,16.85
2023-03-10T08:12:39.343Z,17.07
2023-03-10T08:15:06.882Z,17.18
2023-03-10T08:17:33.927Z,17.34
2023-03-10T08:20:06.614Z,17.39
2023-03-10T08:22:33.598Z,17.49
2023-03-10T08:25:01.225Z,17.58
2023-03-10T08:27:29.227Z,17.73
2023-03-10T08:29:56.606Z,17.77
2023-03-10T08:32:23.890Z,17.51
2023-03-10T08:34:50.879Z,17.65
2023-03-10T08:37:18.184Z,17.71
2023-03-10T08:39:46.522Z,17.83
2023-03-10T08:42:14.424Z,17.83
2023-03-10T08:44:42.156Z,17.99
2023-03-10T08:47:09.486Z,17.85
2023-03-10T08:49:36.762Z,17.92
2023-03-10T08:52:04.298Z,17.87
2023-03-10T08:54:32.619Z,17.70
2023-03-10T08:57:00.807Z,17.67
2023-03-10T08:59:27.788Z,17.82
2023-03-10T09:01:54.927Z,17.89
2023-03-10T09:04:22.275Z,18.02
2023-03-10T09:06:49.049Z,17.90
2023-03-10T09:09:16.543Z,18.16
2023-03-10T09:11:43.721Z,18.07
2023-03-10T09:14:12.250Z,18.25
2023-03-10T09:16:40.413Z,18.39
2023-03-10T09:19:08.205Z,18.39
2023-03-10T09:21:35.634Z,18.44
2023-03-10T09:24:03.603Z,18.30
2023-03-10T09:26:33.864Z,18.33
2023-03-10T09:29:01.972Z,18.41
2023-03-10T09:31:35.109Z,18.30
2023-03-10T09:34:03.914Z,18.05
2023-03-10T09:36:30.824Z,18.14
2023-03-10T09:39:05.704Z,18.30
2023-03-10T09:42:05.953Z,18.25
2023-03-10T09:44:58.030Z,18.26
2023-03-10T09:48:05.090Z,18.31
2023-03-10T09:50:48.369Z,18.43
2023-03-10T09:53:36.821Z,18.32
2023-03-10T09:56:12.410Z,18.37
2023-03-10T09:58:56.886Z,18.39
2023-03-10T10:01:28.017Z,18.41
2023-03-10T10:04:00.011Z,18.31
2023-03-10T10:06:32.037Z,18.47
2023-03-10T10:09:07.277Z,18.53
2023-03-10T10:11:36.948Z,18.63
2023-03-10T10:14:15.910Z,18.64
2023-03-10T10:17:05.103Z,18.76
2023-03-10T10:19:34.888Z,18.78
2023-03-10T10:22:18.666Z,18.77
2023-03-10T10:24:56.869Z,18.74
2023-03-10T10:27:25.488Z,18.88
2023-03-10T10:29:54.271Z,18.85
2023-03-10T10:32:21.594Z,18.91
2023-03-10T10:34:51.149Z,18.81
2023-03-10T10:37:35.618Z,19.02
2023-03-10T10:40:23.509Z,18.85
2023-03-10T10:42:55.894Z,18.87
2023-03-10T10:45:30.672Z,19.04
2023-03-10T10:47:57.847Z,19.16
2023-03-10T10:50:30.976Z,19.22
2023-03-10T10:53:13.490Z,19.22
2023-03-10T10:55:45.544Z,19.03
2023-03-10T10:58:29.580Z,19.31
2023-03-10T11:01:04.034Z,19.34
2023-03-10T11:03:34.980Z,19.41
2023-03-10T11:06:13.899Z,19.45
2023-03-10T11:08:43.396Z,19.42
2023-03-10T11:11:38.645Z,19.44
2023-03-10T11:14:15.144Z,19.49
2023-03-10T11:16:52.335Z,19.76
2023-03-10T11:19:50.035Z,19.92
2023-03-10T11:22:16.911Z,19.92
2023-03-10T11:25:06.489Z,19.88
2023-03-10T11:27:59.433Z,19.93
2023-03-10T11:30:40.405Z,20.13
2023-03-10T11:33:50.767Z,20.38
2023-03-10T11:36:26.910Z,20.49
2023-03-10T11:39:14.644Z,20.62
2023-03-10T11:41:48.362Z,20.52
2023-03-10T11:44:38.722Z,20.64
2023-03-10T11:47:30.351Z,20.67
2023-03-10T11:50:04.192Z,20.52
2023-03-10T11:52:33.295Z,20.66
2023-03-10T11:55:10.493Z,20.80
2023-03-10T11:57:46.178Z,21.01
2023-03-10T12:00:33.744Z,20.83
2023-03-10T12:03:17.186Z,20.77
2023-03-10T12:05:58.350Z,21.00
2023-03-10T12:08:30.365Z,20.94
2023-03-10T12:11:01.573Z,21.11
2023-03-10T12:13:35.805Z,21.00
2023-03-10T12:16:06.243Z,20.83
2023-03-10T12:18:34.125Z,20.90
2023-03-10T12:21:14.795Z,20.89
2023-03-10T12:23:44.901Z,20.92
2023-03-10T12:26:12.052Z,20.90
2023-03-10T12:28:39.976Z,20.96
2023-03-10T12:31:07.064Z,21.19
2023-03-10T12:33:41.958Z,21.05
2023-03-10T12:36:31.975Z,21.04
2023-03-10T12:39:23.755Z,20.86
2023-03-10T12:41:53.207Z,20.74
2023-03-10T12:44:41.148Z,20.72
2023-03-10T12:47:08.422Z,20.49
2023-03-10T12:49:41.378Z,20.39
2023-03-10T12:52:21.782Z,20.16
2023-03-10T12:55:05.801Z,20.17
2023-03-10T12:57:41.586Z,20.15
2023-03-10T13:00:17.890Z,20.04
2023-03-10T13:03:00.581Z,20.12
2023-03-10T13:05:35.464Z,20.19
2023-03-10T13:08:17.476Z,20.26
2023-03-10T13:10:45.678Z,20.22
2023-03-10T13:13:17.299Z,20.04
2023-03-10T13:15:58.807Z,20.18
2023-03-10T13:18:25.887Z,20.11
2023-03-10T13:20:53.288Z,20.22
2023-03-10T13:23:35.235Z,20.38
2023-03-10T13:26:13.485Z,20.12
2023-03-10T13:28:50.722Z,20.06
2023-03-10T13:31:27.935Z,20.18
2023-03-10T13:33:56.068Z,20.18
2023-03-10T13:36:37.932Z,19.99
2023-03-10T13:39:10.801Z,20.00
2023-03-10T13:41:41.596Z,19.98
2023-03-10T13:44:26.937Z,19.77
2023-03-10T13:46:58.091Z,19.74
2023-03-10T13:49:35.342Z,19.64
2023-03-10T13:52:04.477Z,19.55
2023-03-10T13:54:33.987Z,19.54
2023-03-10T13:57:22.488Z,19.45
2023-03-10T13:59:50.424Z,19.32
2023-03-10T14:02:18.966Z,19.16
2023-03-10T14:04:51.914Z,19.14
2023-03-10T14:07:22.047Z,19.16
2023-03-10T14:10:10.264Z,19.14
2023-03-10T14:12:45.631Z,19.17
2023-03-10T14:15:15.386Z,19.13
2023-03-10T14:17:43.688Z,19.12
2023-03-10T14:20:12.457Z,19.15
2023-03-10T14:22:43.456Z,19.13
2023-03-10T14:25:16.621Z,18.97
2023-03-10T14:27:56.996Z,19.03
2023-03-10T14:30:34.647Z,18.85
2023-03-10T14:33:02.195Z,18.62
2023-03-10T14:35:30.420Z,18.68
2023-03-10T14:37:57.329Z,18.64
2023-03-10T14:40:25.710Z,18.64
2023-03-10T14:42:54.497Z,18.52
2023-03-10T14:45:29.961Z,18.49
2023-03-10T14:48:02.643Z,18.54
2023-03-10T14:50:31.008Z,18.45
2023-03-10T14:52:58.330Z,18.43
2023-03-10T14:55:25.248Z,18.30
2023-03-10T14:57:59.037Z,18.25
2023-03-10T15:00:28.739Z,18.17
2023-03-10T15:02:56.258Z,18.15
2023-03-10T15:05:34.617Z,18.13
2023-03-10T15:08:05.984Z,17.99
2023-03-10T15:10:37.040Z,17.93
2023-03-10T15:13:04.252Z,17.90
2023-03-10T15:15:38.449Z,17.84
2023-03-10T15:18:06.238Z,17.93
2023-03-10T15:20:33.470Z,17.88
2023-03-10T15:23:00.638Z,17.70
2023-03-10T15:25:27.622Z,17.84
2023-03-10T15:27:54.839Z,17.92
2023-03-10T15:30:32.470Z,17.84
2023-03-10T15:33:00.500Z,17.89
2023-03-10T15:35:29.398Z,17.94
2023-03-10T15:37:57.081Z,17.91
2023-03-10T15:40:29.810Z,17.87
2023-03-10T15:42:58.441Z,17.89
2023-03-10T15:45:28.810Z,17.82
2023-03-10T15:47:56.898Z,17.86
2023-03-10T15:50:24.158Z,17.78
2023-03-10T15:52:55.191Z,17.71
2023-03-10T15:55:23.163Z,17.79
2023-03-10T15:57:50.834Z,17.61
2023-03-10T16:00:20.363Z,17.59
2023-03-10T16:02:48.324Z,17.56
2023-03-10T16:05:15.550Z,17.52
2023-03-10T16:07:42.564Z,17.43
2023-03-10T16:10:11.628Z,17.36
2023-03-10T16:12:38.565Z,17.41
2023-03-10T16:15:05.903Z,17.31
2023-03-10T16:17:32.804Z,17.23
2023-03-10T16:20:07.137Z,17.23
2023-03-10T16:22:34.160Z,17.14
2023-03-10T16:25:01.042Z,17.19
2023-03-10T16:27:28.128Z,17.05
2023-03-10T16:29:55.059Z,17.24
2023-03-10T16:32:22.116Z,17.32
2023-03-10T16:34:49.057Z,17.13
2023-03-10T16:37:16.053Z,17.11
2023-03-10T16:39:43.622Z,17.01
2023-03-10T16:42:10.497Z,17.16
2023-03-10T16:44:37.408Z,17.07
2023-03-10T16:47:04.263Z,17.07
2023-03-10T16:49:32.436Z,17.04
2023-03-10T16:51:59.779Z,16.97
2023-03-10T16:54:26.724Z,16.95
2023-03-10T16:56:57.024Z,16.90
2023-03-10T16:59:25.227Z,16.90
2023-03-10T17:01:52.374Z,16.91
2023-03-10T17:04:48.839Z,16.89
2023-03-10T17:07:16.355Z,16.75
2023-03-10T17:09:43.310Z,16.72
2023-03-10T17:12:10.127Z,16.55
2023-03-10T17:14:36.989Z,16.68
2023-03-10T17:17:05.846Z,16.61
2023-03-10T17:19:34.367Z,16.63
2023-03-10T17:22:01.402Z,16.57
2023-03-10T17:24:28.286Z,16.53
2023-03-10T17:26:55.223Z,16.49
2023-03-10T17:29:22.334Z,16.44
2023-03-10T17:31:51.454Z,16.41
2023-03-10T17:34:19.501Z,16.34
2023-03-10T17:36:47.113Z,16.39
2023-03-10T17:39:20.722Z,16.37
2023-03-10T17:41:48.482Z,16.34
2023-03-10T17:44:15.996Z,16.24
2023-03-10T17:46:43.056Z,16.28
2023-03-10T17:49:12.504Z,16.27
2023-03-10T17:51:49.396Z,16.26
2023-03-10T17:54:22.206Z,16.22
2023-03-10T17:56:50.423Z,16.17
2023-03-10T17:59:17.356Z,16.15
2023-03-10T18:01:45.808Z,16.20
2023-03-10T18:04:13.078Z,16.08
2023-03-10T18:06:51.816Z,16.11
2023-03-10T18:09:18.704Z,16.03
2023-03-10T18:11:45.762Z,16.00
2023-03-10T18:14:12.508Z,15.92
2023-03-10T18:16:40.929Z,15.92
2023-03-10T18:19:10.525Z,15.90
2023-03-10T18:21:38.561Z,15.76
2023-03-10T18:24:06.585Z,15.76
2023-03-10T18:26:33.843Z,15.55
2023-03-10T18:29:00.988Z,15.56
2023-03-10T18:31:31.966Z,15.43
2023-03-10T18:34:00.097Z,15.37
2023-03-10T18:36:27.612Z,15.30
2023-03-10T18:38:54.767Z,15.27
2023-03-10T18:41:27.144Z,15.17
2023-03-10T18:43:54.098Z,15.13
2023-03-10T18:46:22.210Z,15.08
2023-03-10T18:48:55.506Z,15.07
2023-03-10T18:51:25.026Z,14.94
2023-03-10T18:53:52.206Z,14.88
2023-03-10T18:56:19.282Z,14.89
2023-03-10T18:58:46.217Z,14.79
2023-03-10T19:01:14.983Z,14.76
2023-03-10T19:03:42.530Z,14.75
2023-03-10T19:06:09.688Z,14.69
2023-03-10T19:08:38.674Z,14.77
2023-03-10T19:11:07.073Z,14.77
2023-03-10T19:13:35.114Z,14.70
2023-03-10T19:16:07.615Z,14.66
2023-03-10T19:18:35.917Z,14.51
2023-03-10T19:21:03.660Z,14.54
2023-03-10T19:23:30.701Z,14.42
2023-03-10T19:25:57.850Z,14.37
2023-03-10T19:28:24.918Z,14.27
2023-03-10T19:30:51.763Z,14.32
2023-03-10T19:33:18.952Z,14.16
2023-03-10T19:35:45.874Z,14.11
2023-03-10T19:38:12.973Z,14.15
2023-03-10T19:40:39.979Z,14.24
2023-03-10T19:43:07.185Z,14.24
2023-03-10T19:45:34.121Z,14.21
2023-03-10T19:48:01.219Z,14.32
2023-03-10T19:50:28.386Z,14.30
2023-03-10T19:52:55.531Z,14.31
2023-03-10T19:55:24.233Z,14.26
2023-03-10T19:57:53.309Z,14.29
2023-03-10T20:00:25.451Z,14.26
2023-03-10T20:02:55.449Z,14.26
2023-03-10T20:05:25.425Z,14.25
2023-03-10T20:07:53.203Z,14.33
2023-03-10T20:10:20.710Z,14.22
2023-03-10T20:12:47.729Z,14.28
2023-03-10T20:15:15.180Z,14.24
2023-03-10T20:17:41.962Z,14.14
2023-03-10T20:20:12.552Z,13.96
2023-03-10T20:22:41.421Z,13.98
2023-03-10T20:25:10.966Z,13.85
2023-03-10T20:27:38.330Z,13.90
2023-03-10T20:30:30.842Z,13.81
2023-03-10T20:32:59.738Z,13.76
2023-03-10T20:35:29.117Z,13.69
2023-03-10T20:37:56.170Z,13.60
2023-03-10T20:40:24.395Z,13.47
2023-03-10T20:42:53.143Z,13.48
2023-03-10T20:45:21.007Z,13.40
2023-03-10T20:47:48.507Z,13.30
2023-03-10T20:50:16.742Z,13.23
2023-03-10T20:52:44.166Z,13.13
2023-03-10T20:55:31.791Z,13.11
2023-03-10T20:58:00.902Z,12.98
2023-03-10T21:00:29.731Z,12.94
2023-03-10T21:02:57.501Z,12.81
2023-03-10T21:05:25.926Z,12.81
2023-03-10T21:07:53.620Z,12.86
2023-03-10T21:10:21.128Z,12.78
2023-03-10T21:12:48.293Z,12.64
2023-03-10T21:15:16.718Z,12.58
2023-03-10T21:17:44.217Z,12.57
2023-03-10T21:20:15.482Z,12.56
2023-03-10T21:22:42.252Z,12.44
2023-03-10T21:25:15.191Z,12.39
2023-03-10T21:27:42.391Z,12.41
2023-03-10T21:30:12.767Z,12.39
2023-03-10T21:32:39.932Z,12.29
2023-03-10T21:35:07.253Z,12.31
2023-03-10T21:37:35.277Z,12.20
2023-03-10T21:40:05.459Z,12.24
2023-03-10T21:42:32.466Z,12.24
2023-03-10T21:44:59.336Z,12.20
2023-03-10T21:47:26.301Z,12.13
2023-03-10T21:49:53.176Z,12.08
2023-03-10T21:52:20.229Z,12.08
2023-03-10T21:54:47.254Z,12.03
2023-03-10T21:57:14.404Z,11.98
2023-03-10T21:59:41.380Z,11.90
2023-03-10T22:02:12.426Z,11.89
2023-03-10T22:04:39.355Z,11.96
2023-03-10T22:07:06.495Z,11.84
2023-03-10T22:09:33.328Z,11.87
2023-03-10T22:12:00.551Z,11.80
2023-03-10T22:14:27.737Z,11.80
2023-03-10T22:16:54.695Z,11.72
2023-03-10T22:19:21.549Z,11.80
2023-03-10T22:21:48.451Z,11.76
2023-03-10T22:24:15.454Z,11.86
2023-03-10T22:26:42.265Z,11.85
2023-03-10T22:29:09.533Z,11.84
2023-03-10T22:31:36.471Z,11.64
2023-03-10T22:34:03.388Z,11.81
2023-03-10T22:36:30.576Z,11.70
2023-03-10T22:38:57.578Z,11.77
2023-03-10T22:41:25.790Z,11.66
2023-03-10T22:43:52.716Z,11.74
2023-03-10T22:46:20.346Z,11.80
2023-03-10T22:48:47.486Z,11.79
2023-03-10T22:51:17.297Z,11.74
2023-03-10T22:53:47.150Z,11.71
2023-03-10T22:56:13.972Z,11.67
2023-03-10T22:58:40.959Z,11.63
2023-03-10T23:01:08.235Z,11.59
2023-03-10T23:03:35.534Z,11.67
2023-03-10T23:06:06.678Z,11.68
2023-03-10T23:08:37.571Z,11.64
2023-03-10T23:11:11.980Z,11.60
2023-03-10T23:13:39.533Z,11.64
2023-03-10T23:16:07.232Z,11.52
2023-03-10T23:18:34.348Z,11.54
2023-03-10T23:21:01.780Z,11.49
2023-03-10T23:23:28.799Z,11.33
2023-03-10T23:25:55.772Z,11.51
2023-03-10T23:28:22.805Z,11.48
2023-03-10T23:30:51.417Z,11.50
2023-03-10T23:33:22.340Z,11.52
2023-03-10T23:35:54.332Z,11.54
2023-03-10T23:38:23.699Z,11.55
2023-03-10T23:40:51.301Z,11.53
2023-03-10T23:43:18.662Z,11.41
2023-03-10T23:45:46.304Z,11.48
2023-03-10T23:48:16.183Z,11.49
2023-03-10T23:50:44.934Z,11.54
2023-03-10T23:53:13.807Z,11.56
2023-03-10T23:55:43.555Z,11.53
2023-03-10T23:58:11.393Z,11.63
